Virginia Beach, VA (23462)

12:37 AM EDT on September 20, 2014 (GMT -0400)
Carolanne Farms | Change Station
CLOSE
Current Station
Personal Weather Station
Location: Virginia Beach, VA
Elevation: 30 ft
Nearby Weather Stations
Active Advisory: Beach Hazard Statement

Elev 30 ft 36.83 °N, 76.18 °W | Updated 9 minutes ago

Clear
Clear
62.8 °F
Feels Like 62.8 °F
N
0.0
Wind Variable Wind from East

Today
High -- | Low -- °F
--% Chance of Precip.
Yesterday
High -- | Low -- °F
Precip. -- in
6:50 AM 7:04 PM
Waning Crescent, 15% visible
Pressure 30.27 in
Visibility 10.0 miles
Clouds Clear
Dew Point 59 °F
Humidity 88%
Rainfall 0.00 in
Snow Depth Not available.
UV 0 out of 12
Pollen 5.80 out of 12
Ozone Good
PM2.5 Good
Flu Activity Not available.
METAR KORF 200351Z AUTO 08005KT 10SM CLR 21/14 A3026 RMK AO2 SLP248 T02060139 TSNO

More Conditions Fewer Conditions

Pressure 30.27 in
Visibility 10.0 miles
Clouds Clear
Dew Point 59 °F
Humidity 88%
Rainfall 0.00 in
Snow Depth Not available.
UV 0 out of 12
Pollen 5.80 out of 12
Ozone Good
PM2.5 Good
Flu Activity Not available.
METAR KORF 200351Z AUTO 08005KT 10SM CLR 21/14 A3026 RMK AO2 SLP248 T02060139 TSNO

More Conditions Fewer Conditions

10-Day Weather Forecast

Almanac

Astronomy

Sep. 20, 2014 Rise Set
Actual Time 6:50 AM EDT 7:04 PM EDT
Civil Twilight 6:24 AM EDT 7:30 PM EDT
Nautical Twilight 5:54 AM EDT 8:00 PM EDT
Astronomical Twilight 5:23 AM EDT 8:31 PM EDT
Moon 3:32 AM EDT 5:03 PM EDT
Length of Visible Light 13h 05m
Length of Day
12h 13m
Tomorrow will be 2m 20s shorter.
Waning Crescent, 15% of the Moon is Illuminated
Today
Waning Crescent
Sep 24
New
Oct 1
First Quarter
Oct 8
Full
Oct 15
Last Quarter

Today's Extremes

State Highs State Lows

Community

WunderPhotos

Upload Photos

1,754,777 photos uploaded!

WunderBlogs® & News

Nearby

Air Quality

  Air Quality AQ Index Pollutant
Yesterday Good
OZONE
Yesterday Good
PM2.5
Current Good
OZONE
Current Good
PM2.5
Friday Good
PM2.5
Saturday Good
PM2.5
Sunday Good
PM2.5
Monday Good
PM2.5

Snow Depth

Station Depth Elevation
No new snow has been reported.

Earthquake Activity

City Distance Mag. Time & Date
No recent earthquake activity has been reported nearby.
Minimum magnitude displayed is 2.5.

Coastal Water Temperatures

Place Temperature
Chesapeake Bay Bridge Tunnel, VA 75.0 °F
Kiptopeke, VA 79.0 °F
Money Point, VA 80.1 °F
Sewells Point, VA 75.0 °F

Nearby Weather Stations